This is the latest recevied weather packets stored in our database for station/object SQ5LTL-2. If no packets are shown the sender has not sent any weather packets the latest 10 day(s).
| Time | Temp. | Humidity | Pressure | Rain* | Wind** | Luminosity | Snow |
|---|---|---|---|---|---|---|---|
| 1777932034 | 12.78° C | 60% | 1013.1 hPa | 0 mm | - | 0 W/m² | - |
| 1777931730 | 12.78° C | 59% | 1013.1 hPa | 0 mm | - | 0 W/m² | - |
| 1777931430 | 12.78° C | 61% | 1013 hPa | 0 mm | - | 0 W/m² | - |
| 1777931128 | 12.78° C | 61% | 1013 hPa | 0 mm | - | 0 W/m² | - |
| 1777930828 | 12.78° C | 61% | 1013.2 hPa | 0 mm | - | 0 W/m² | - |
| 1777930525 | 12.78° C | 62% | 1013.1 hPa | 0 mm | - | 0 W/m² | - |
| 1777930225 | 12.78° C | 63% | 1013 hPa | 0 mm | - | 0 W/m² | - |
| 1777929922 | 12.22° C | 63% | 1013.1 hPa | 0 mm | - | 0 W/m² | - |
| 1777929621 | 11.67° C | 67% | 1013.2 hPa | 0 mm | - | 0 W/m² | - |
| 1777929320 | 12.22° C | 67% | 1013.1 hPa | 0 mm | - | 0 W/m² | - |
| 1777929018 | 12.78° C | 63% | 1013.1 hPa | 0 mm | - | 0 W/m² | - |
| 1777928716 | 12.22° C | 64% | 1013.2 hPa | 0 mm | - | 0 W/m² | - |
| 1777928435 | 11.67° C | 67% | 1013.2 hPa | 0 mm | - | 0 W/m² | - |
| 1777928133 | 11.11° C | 70% | 1013.1 hPa | 0 mm | - | 0 W/m² | - |
| 1777927832 | 10.56° C | 73% | 1013.2 hPa | 0 mm | - | 0 W/m² | - |
| 1777927532 | 10.56° C | 72% | 1013.3 hPa | 0 mm | - | 0 W/m² | - |
| 1777927230 | 11.11° C | 71% | 1013.1 hPa | 0 mm | - | 0 W/m² | - |
| 1777926928 | 11.67° C | 69% | 1013.1 hPa | 0 mm | - | 0 W/m² | - |
| 1777926626 | 11.67° C | 69% | 1013.1 hPa | 0 mm | - | 0 W/m² | - |
| 1777926324 | 11.67° C | 68% | 1013.2 hPa | 0 mm | - | 0 W/m² | - |
| 1777926023 | 12.22° C | 67% | 1013 hPa | 0 mm | - | 0 W/m² | - |
| 1777925723 | 12.22° C | 67% | 1013.1 hPa | 0 mm | - | 0 W/m² | - |
| 1777925421 | 12.22° C | 67% | 1012.9 hPa | 0 mm | - | 0 W/m² | - |
| 1777925118 | 12.22° C | 66% | 1012.8 hPa | 0 mm | - | 0 W/m² | - |
| 1777924830 | 12.78° C | 64% | 1013 hPa | 0 mm | - | 0 W/m² | - |
* Rain latest hour (hover to see other rain measurements)
** Current wind speed in m/s (hover to see current wind gust speed)